createdAt,value
2018-06-17T00:01:40.728Z,2.70
2018-06-17T00:04:10.402Z,6.03
2018-06-17T00:06:39.468Z,6.17
2018-06-17T00:09:09.656Z,6.47
2018-06-17T00:11:39.010Z,3.33
2018-06-17T00:14:08.351Z,3.70
2018-06-17T00:16:37.724Z,5.20
2018-06-17T00:19:07.115Z,3.20
2018-06-17T00:21:36.525Z,3.87
2018-06-17T00:24:05.856Z,3.70
2018-06-17T00:26:35.232Z,3.10
2018-06-17T00:29:04.591Z,6.33
2018-06-17T00:31:33.932Z,4.60
2018-06-17T00:34:03.335Z,2.50
2018-06-17T00:36:32.680Z,3.43
2018-06-17T00:39:02.009Z,3.50
2018-06-17T00:41:31.432Z,3.17
2018-06-17T00:44:00.764Z,6.50
2018-06-17T00:46:30.064Z,4.37
2018-06-17T00:48:59.396Z,3.57
2018-06-17T00:51:28.781Z,3.40
2018-06-17T00:53:58.100Z,6.03
2018-06-17T00:56:27.436Z,2.53
2018-06-17T00:58:56.760Z,2.70
2018-06-17T01:01:26.093Z,3.70
2018-06-17T01:03:55.453Z,4.70
2018-06-17T01:06:24.795Z,4.10
2018-06-17T01:08:54.110Z,3.53
2018-06-17T01:11:23.453Z,5.33
2018-06-17T01:13:53.315Z,4.63
2018-06-17T01:16:22.836Z,4.40
2018-06-17T01:18:52.209Z,4.77
2018-06-17T01:21:21.621Z,3.77
2018-06-17T01:23:50.941Z,4.00
2018-06-17T01:26:20.247Z,3.17
2018-06-17T01:28:49.625Z,4.40
2018-06-17T01:31:18.964Z,5.50
2018-06-17T01:33:48.311Z,3.10
2018-06-17T01:36:17.355Z,3.37
2018-06-17T01:38:46.699Z,3.30
2018-06-17T01:41:16.020Z,3.20
2018-06-17T01:43:45.327Z,3.17
2018-06-17T01:46:14.675Z,3.67
2018-06-17T01:48:44.054Z,3.90
2018-06-17T01:51:13.331Z,4.13
2018-06-17T01:53:42.675Z,4.57
2018-06-17T01:56:11.985Z,3.63
2018-06-17T01:58:41.323Z,4.67
2018-06-17T02:01:10.637Z,3.20
2018-06-17T02:03:45.268Z,3.77
2018-06-17T02:06:19.968Z,3.60
2018-06-17T02:08:54.501Z,5.90
2018-06-17T02:11:28.869Z,3.80
2018-06-17T02:14:03.187Z,3.50
2018-06-17T02:16:32.510Z,4.43
2018-06-17T02:19:01.876Z,5.47
2018-06-17T02:21:31.214Z,5.17
2018-06-17T02:24:00.639Z,3.20
2018-06-17T02:26:29.987Z,4.75
2018-06-17T02:28:59.339Z,4.53
2018-06-17T02:31:28.665Z,4.13
2018-06-17T02:33:57.992Z,4.47
2018-06-17T02:36:27.680Z,3.30
2018-06-17T02:38:57.359Z,7.20
2018-06-17T02:41:27.007Z,5.33
2018-06-17T02:43:56.659Z,3.80
2018-06-17T02:46:31.424Z,6.70
2018-06-17T02:49:05.872Z,5.10
2018-06-17T02:51:40.379Z,4.17
2018-06-17T02:54:47.652Z,4.20
2018-06-17T02:57:20.049Z,4.43
2018-06-17T02:59:49.357Z,5.50
2018-06-17T03:02:18.676Z,4.50
2018-06-17T03:04:48.017Z,6.93
2018-06-17T03:07:17.348Z,5.03
2018-06-17T03:09:46.703Z,7.30
2018-06-17T03:12:16.049Z,7.67
2018-06-17T03:14:45.352Z,7.00
2018-06-17T03:17:14.672Z,5.77
2018-06-17T03:19:44.016Z,6.77
2018-06-17T03:22:13.340Z,8.57
2018-06-17T03:24:47.959Z,7.93
2018-06-17T03:28:24.255Z,6.23
2018-06-17T03:30:58.785Z,5.43
2018-06-17T03:33:33.225Z,6.27
2018-06-17T03:36:07.840Z,6.43
2018-06-17T03:38:37.407Z,7.43
2018-06-17T03:41:06.896Z,9.80
2018-06-17T03:43:36.317Z,9.00
2018-06-17T03:46:05.697Z,7.23
2018-06-17T03:48:35.084Z,8.30
2018-06-17T03:51:04.428Z,5.83
2018-06-17T03:53:33.845Z,6.07
2018-06-17T03:56:06.492Z,15.73
2018-06-17T03:58:35.807Z,9.03
2018-06-17T04:01:05.133Z,8.43
2018-06-17T04:03:34.456Z,7.93
2018-06-17T04:06:03.775Z,7.10
2018-06-17T04:08:33.108Z,10.17
2018-06-17T04:11:02.420Z,7.33
2018-06-17T04:13:31.766Z,12.00
2018-06-17T04:16:01.164Z,10.93
2018-06-17T04:18:30.424Z,7.03
2018-06-17T04:20:59.766Z,11.00
2018-06-17T04:23:29.097Z,9.83
2018-06-17T04:25:58.412Z,7.97
2018-06-17T04:28:27.766Z,6.90
2018-06-17T04:30:57.621Z,11.03
2018-06-17T04:33:26.965Z,11.27
2018-06-17T04:45:11.432Z,12.07
2018-06-17T04:47:40.764Z,12.10
2018-06-17T04:50:10.088Z,13.20
2018-06-17T04:52:39.419Z,10.80
2018-06-17T04:55:08.735Z,9.03
2018-06-17T04:57:37.808Z,10.73
2018-06-17T05:00:07.238Z,10.43
2018-06-17T05:02:36.557Z,9.17
2018-06-17T05:05:06.268Z,10.30
2018-06-17T05:07:35.585Z,8.93
2018-06-17T05:10:04.984Z,10.67
2018-06-17T05:12:34.328Z,8.33
2018-06-17T05:15:04.082Z,9.13
2018-06-17T05:17:33.412Z,10.40
2018-06-17T05:20:02.768Z,8.53
2018-06-17T05:22:32.113Z,11.13
2018-06-17T05:25:01.462Z,11.33
2018-06-17T05:27:30.885Z,9.40
2018-06-17T05:30:00.191Z,8.27
2018-06-17T05:32:29.500Z,8.85
2018-06-17T05:34:58.868Z,6.63
2018-06-17T05:37:28.260Z,6.33
2018-06-17T05:39:57.575Z,8.03
2018-06-17T05:42:26.889Z,11.63
2018-06-17T05:44:56.219Z,6.90
2018-06-17T05:47:25.573Z,5.60
2018-06-17T05:49:54.915Z,5.87
2018-06-17T05:52:24.227Z,7.97
2018-06-17T05:54:53.564Z,5.53
2018-06-17T05:57:22.917Z,6.70
2018-06-17T05:59:52.244Z,4.37
2018-06-17T06:02:21.572Z,5.53
2018-06-17T06:04:50.867Z,7.30
2018-06-17T06:07:20.472Z,3.73
2018-06-17T06:09:49.807Z,2.47
2018-06-17T06:12:19.172Z,4.20
2018-06-17T06:14:48.527Z,4.33
2018-06-17T06:17:17.827Z,5.37
2018-06-17T06:19:47.170Z,6.13
2018-06-17T06:22:16.491Z,2.62
2018-06-17T06:24:45.869Z,1.93
2018-06-17T06:27:15.131Z,4.03
2018-06-17T06:29:44.465Z,1.90
2018-06-17T06:32:13.805Z,3.10
2018-06-17T06:34:43.099Z,3.70
2018-06-17T06:37:12.509Z,2.73
2018-06-17T06:39:41.784Z,4.40
2018-06-17T06:42:11.116Z,3.97
2018-06-17T06:44:40.446Z,3.30
2018-06-17T06:47:09.835Z,4.20
2018-06-17T06:49:39.140Z,4.03
2018-06-17T06:52:08.580Z,3.97
2018-06-17T06:54:37.912Z,6.30
2018-06-17T06:57:07.485Z,6.03
2018-06-17T06:59:36.848Z,5.03
2018-06-17T07:02:23.256Z,3.70
2018-06-17T07:05:09.628Z,3.50
2018-06-17T07:07:56.112Z,2.97
2018-06-17T07:10:28.803Z,4.20
2018-06-17T07:12:58.172Z,3.10
2018-06-17T07:15:44.467Z,2.80
2018-06-17T07:18:30.845Z,3.80
2018-06-17T07:21:00.204Z,2.93
2018-06-17T07:23:29.728Z,1.60
2018-06-17T07:26:46.571Z,2.97
2018-06-17T07:29:35.203Z,1.80
2018-06-17T07:32:04.549Z,2.43
2018-06-17T07:34:34.125Z,2.40
2018-06-17T07:37:03.741Z,1.90
2018-06-17T07:40:48.648Z,2.40
2018-06-17T07:43:18.004Z,1.70
2018-06-17T07:45:47.691Z,2.50
2018-06-17T07:49:42.427Z,2.70
2018-06-17T07:52:31.674Z,2.87
2018-06-17T07:55:01.132Z,1.63
2018-06-17T07:57:31.616Z,1.00
2018-06-17T08:00:00.997Z,2.23
2018-06-17T08:02:30.320Z,1.90
2018-06-17T08:04:59.680Z,1.57
2018-06-17T08:07:29.000Z,1.43
2018-06-17T08:09:58.360Z,1.23
2018-06-17T08:12:27.687Z,1.83
2018-06-17T08:14:57.051Z,3.53
2018-06-17T08:17:26.400Z,0.80
2018-06-17T08:19:55.779Z,1.03
2018-06-17T08:22:25.084Z,1.60
2018-06-17T08:24:54.437Z,2.53
2018-06-17T08:27:23.755Z,1.00
2018-06-17T08:29:53.073Z,2.43
2018-06-17T08:32:22.468Z,1.20
2018-06-17T08:34:51.796Z,1.80
2018-06-17T08:37:21.125Z,1.70
2018-06-17T08:39:50.444Z,2.23
2018-06-17T08:42:19.752Z,1.43
2018-06-17T08:44:49.123Z,1.43
2018-06-17T08:47:18.540Z,1.20
2018-06-17T08:49:47.869Z,1.10
2018-06-17T08:52:17.221Z,1.57
2018-06-17T08:54:46.581Z,1.93
2018-06-17T08:57:16.137Z,0.70
2018-06-17T08:59:45.772Z,3.53
2018-06-17T09:02:15.386Z,1.65
2018-06-17T09:04:45.036Z,1.83
2018-06-17T09:07:14.316Z,1.83
2018-06-17T09:09:43.930Z,1.57
2018-06-17T09:12:13.608Z,1.50
2018-06-17T09:14:43.275Z,1.97
2018-06-17T09:17:12.639Z,0.70
2018-06-17T09:19:41.964Z,1.17
2018-06-17T09:22:11.293Z,1.27
2018-06-17T09:24:40.607Z,1.77
2018-06-17T09:27:09.936Z,2.70
2018-06-17T09:29:39.242Z,4.40
2018-06-17T09:32:08.645Z,2.97
2018-06-17T09:34:37.931Z,2.80
2018-06-17T09:37:07.300Z,1.87
2018-06-17T09:39:36.720Z,3.10
2018-06-17T09:42:06.120Z,1.73
2018-06-17T09:44:35.468Z,2.83
2018-06-17T09:47:04.781Z,0.90
2018-06-17T09:49:34.111Z,3.07
2018-06-17T09:52:03.429Z,3.27
2018-06-17T09:54:32.760Z,1.90
2018-06-17T09:57:02.206Z,1.43
2018-06-17T09:59:31.545Z,1.70
2018-06-17T10:02:00.989Z,1.80
2018-06-17T10:04:30.289Z,2.23
2018-06-17T10:06:59.642Z,2.75
2018-06-17T10:09:28.968Z,1.47
2018-06-17T10:11:58.277Z,1.67
2018-06-17T10:14:27.592Z,1.80
2018-06-17T10:16:56.945Z,2.07
2018-06-17T10:19:26.272Z,1.87
2018-06-17T10:21:55.576Z,1.83
2018-06-17T10:24:24.949Z,1.57
2018-06-17T10:26:54.248Z,3.20
2018-06-17T10:29:23.679Z,0.97
2018-06-17T10:31:52.940Z,3.10
2018-06-17T10:34:22.284Z,2.23
2018-06-17T10:36:51.610Z,1.13
2018-06-17T10:39:20.952Z,0.70
2018-06-17T10:41:50.281Z,2.90
2018-06-17T10:44:19.654Z,2.50
2018-06-17T10:46:49.540Z,1.87
2018-06-17T10:49:18.866Z,1.63
2018-06-17T10:55:16.164Z,1.33
2018-06-17T10:57:46.388Z,1.10
2018-06-17T11:00:15.725Z,2.43
2018-06-17T11:02:45.048Z,1.57
2018-06-17T11:05:14.426Z,2.87
2018-06-17T11:07:43.713Z,1.53
2018-06-17T11:10:13.037Z,4.13
2018-06-17T11:12:42.373Z,1.93
2018-06-17T11:15:11.679Z,1.67
2018-06-17T11:17:41.016Z,1.97
2018-06-17T11:20:10.342Z,1.57
2018-06-17T11:22:39.665Z,3.43
2018-06-17T11:25:09.398Z,1.30
2018-06-17T11:27:38.990Z,1.60
2018-06-17T11:30:08.640Z,2.23
2018-06-17T11:32:38.257Z,1.43
2018-06-17T11:35:07.607Z,1.93
2018-06-17T11:37:36.940Z,2.93
2018-06-17T11:40:06.259Z,1.73
2018-06-17T11:42:35.628Z,4.40
2018-06-17T11:45:05.002Z,1.57
2018-06-17T11:47:34.369Z,1.87
2018-06-17T11:50:03.740Z,2.60
2018-06-17T11:52:33.073Z,1.60
2018-06-17T11:55:02.423Z,4.60
2018-06-17T11:57:32.101Z,1.20
2018-06-17T12:00:01.786Z,1.50
2018-06-17T12:02:31.364Z,2.37
2018-06-17T12:05:00.903Z,1.67
2018-06-17T12:07:30.296Z,1.30
2018-06-17T12:09:59.620Z,2.47
2018-06-17T12:12:29.005Z,2.90
2018-06-17T12:14:58.354Z,3.33
2018-06-17T12:17:27.712Z,3.33
2018-06-17T12:19:57.072Z,1.93
2018-06-17T12:22:26.400Z,2.00
2018-06-17T12:24:55.759Z,2.47
2018-06-17T12:27:25.216Z,2.58
2018-06-17T12:29:54.655Z,3.27
2018-06-17T12:32:24.394Z,3.00
2018-06-17T12:34:53.749Z,2.10
2018-06-17T12:37:23.280Z,3.30
2018-06-17T12:39:52.391Z,2.27
2018-06-17T12:42:21.724Z,3.37
2018-06-17T12:44:51.049Z,1.40
2018-06-17T12:47:20.359Z,2.97
2018-06-17T12:49:49.708Z,5.00
2018-06-17T12:52:19.036Z,2.20
2018-06-17T12:54:48.407Z,2.00
2018-06-17T12:57:17.737Z,1.32
2018-06-17T12:59:47.064Z,1.83
2018-06-17T13:02:16.388Z,4.60
2018-06-17T13:04:45.824Z,1.83
2018-06-17T13:07:15.255Z,1.93
2018-06-17T13:09:44.601Z,3.50
2018-06-17T13:12:13.965Z,2.10
2018-06-17T13:14:43.409Z,3.87
2018-06-17T13:17:12.765Z,3.90
2018-06-17T13:19:42.148Z,3.40
2018-06-17T13:22:11.477Z,1.83
2018-06-17T13:24:40.856Z,1.97
2018-06-17T13:27:10.178Z,2.70
2018-06-17T13:29:39.543Z,1.83
2018-06-17T13:32:08.880Z,2.40
2018-06-17T13:34:38.229Z,1.60
2018-06-17T13:37:07.603Z,2.00
2018-06-17T13:39:36.973Z,2.57
2018-06-17T13:42:06.689Z,1.50
2018-06-17T13:44:36.039Z,2.70
2018-06-17T13:47:05.619Z,4.30
2018-06-17T13:49:34.987Z,2.30
2018-06-17T13:52:04.371Z,3.20
2018-06-17T13:54:33.710Z,1.90
2018-06-17T13:57:03.075Z,2.27
2018-06-17T13:59:32.449Z,2.50
2018-06-17T14:02:01.839Z,4.07
2018-06-17T14:04:31.198Z,1.33
2018-06-17T14:07:00.570Z,3.20
2018-06-17T14:09:29.927Z,2.50
2018-06-17T14:12:01.302Z,1.40
2018-06-17T14:14:30.698Z,2.87
2018-06-17T14:17:00.252Z,1.50
2018-06-17T14:19:29.597Z,2.90
2018-06-17T14:21:59.251Z,2.70
2018-06-17T14:24:28.597Z,2.03
2018-06-17T14:26:57.945Z,2.60
2018-06-17T14:29:27.285Z,1.80
2018-06-17T14:31:56.751Z,1.23
2018-06-17T14:34:26.462Z,1.65
2018-06-17T14:36:56.050Z,2.23
2018-06-17T14:39:25.704Z,1.57
2018-06-17T14:42:00.622Z,2.10
2018-06-17T14:44:35.335Z,2.50
2018-06-17T14:47:10.290Z,1.10
2018-06-17T14:49:44.873Z,5.20
2018-06-17T14:52:19.369Z,4.50
2018-06-17T14:54:48.684Z,2.10
2018-06-17T14:57:18.011Z,2.27
2018-06-17T14:59:47.374Z,4.70
2018-06-17T15:02:16.752Z,3.97
2018-06-17T15:04:46.087Z,1.97
2018-06-17T15:07:15.413Z,2.10
2018-06-17T15:09:44.769Z,2.67
2018-06-17T15:12:14.052Z,1.87
2018-06-17T15:14:43.415Z,2.27
2018-06-17T15:17:12.715Z,3.67
2018-06-17T15:19:42.056Z,8.67
2018-06-17T15:22:11.406Z,4.97
2018-06-17T15:24:40.705Z,3.43
2018-06-17T15:27:10.041Z,3.33
2018-06-17T15:29:39.365Z,2.03
2018-06-17T15:32:13.907Z,1.20
2018-06-17T15:34:48.318Z,1.73
2018-06-17T15:37:26.234Z,2.80
2018-06-17T15:39:58.925Z,2.10
2018-06-17T15:42:28.757Z,2.45
2018-06-17T15:44:58.073Z,1.47
2018-06-17T15:55:17.394Z,2.50
2018-06-17T15:57:46.700Z,1.40
2018-06-17T16:00:16.060Z,3.37
2018-06-17T16:02:45.389Z,3.37
2018-06-17T16:05:14.744Z,2.40
2018-06-17T16:07:44.305Z,2.73
2018-06-17T16:10:13.731Z,1.67
2018-06-17T16:13:50.146Z,1.92
2018-06-17T16:16:24.681Z,3.70
2018-06-17T16:18:59.338Z,3.47
2018-06-17T16:21:28.647Z,2.37
2018-06-17T16:23:58.000Z,1.60
2018-06-17T16:26:27.351Z,2.13
2018-06-17T16:28:56.672Z,2.57
2018-06-17T16:31:26.025Z,2.30
2018-06-17T16:33:55.363Z,4.03
2018-06-17T16:36:24.700Z,5.47
2018-06-17T16:38:54.120Z,2.17
2018-06-17T16:41:23.448Z,2.10
2018-06-17T16:43:53.043Z,2.63
2018-06-17T16:46:22.337Z,2.23
2018-06-17T16:48:51.645Z,2.00
2018-06-17T16:51:26.110Z,3.73
2018-06-17T16:54:00.727Z,2.80
2018-06-17T16:56:35.300Z,4.47
2018-06-17T16:59:09.876Z,1.90
2018-06-17T17:01:39.232Z,6.03
2018-06-17T17:04:08.581Z,3.00
2018-06-17T17:06:37.900Z,2.90
2018-06-17T17:09:10.268Z,2.70
2018-06-17T17:11:40.440Z,1.97
2018-06-17T17:14:10.891Z,4.03
2018-06-17T17:16:40.606Z,3.00
2018-06-17T17:19:09.944Z,4.60
2018-06-17T17:21:39.264Z,2.63
2018-06-17T17:24:08.616Z,3.73
2018-06-17T17:26:37.956Z,2.47
2018-06-17T17:29:07.302Z,2.20
2018-06-17T17:31:41.837Z,2.77
2018-06-17T17:34:20.036Z,3.63
2018-06-17T17:36:54.569Z,2.57
2018-06-17T17:39:29.111Z,4.40
2018-06-17T17:41:58.521Z,3.23
2018-06-17T17:44:27.923Z,3.60
2018-06-17T17:47:02.464Z,3.40
2018-06-17T17:49:32.020Z,1.80
2018-06-17T17:52:01.366Z,2.93
2018-06-17T17:54:30.496Z,2.72
2018-06-17T17:57:00.574Z,1.37
2018-06-17T17:59:30.724Z,4.13
2018-06-17T18:02:00.161Z,2.27
2018-06-17T18:04:29.745Z,2.60
2018-06-17T18:06:59.581Z,1.30
2018-06-17T18:09:29.274Z,3.67
2018-06-17T18:11:59.896Z,3.93
2018-06-17T18:14:30.816Z,3.10
2018-06-17T18:17:00.928Z,2.03
2018-06-17T18:19:30.914Z,2.00
2018-06-17T18:22:00.733Z,4.70
2018-06-17T18:24:31.236Z,2.50
2018-06-17T18:27:06.975Z,2.40
2018-06-17T18:29:43.387Z,4.13
2018-06-17T18:32:20.118Z,2.70
2018-06-17T18:34:56.663Z,2.83
2018-06-17T18:37:28.565Z,5.03
2018-06-17T18:40:00.220Z,5.00
2018-06-17T18:42:32.309Z,2.00
2018-06-17T18:45:04.347Z,3.93
2018-06-17T18:47:36.429Z,1.90
2018-06-17T18:50:08.833Z,2.80
2018-06-17T18:52:41.686Z,2.40
2018-06-17T18:55:14.502Z,4.27
2018-06-17T18:57:47.324Z,2.40
2018-06-17T19:00:19.383Z,2.70
2018-06-17T19:02:51.594Z,2.57
2018-06-17T19:05:25.209Z,1.57
2018-06-17T19:07:57.423Z,5.30
2018-06-17T19:10:34.176Z,2.37
2018-06-17T19:13:10.991Z,3.73
2018-06-17T19:15:47.719Z,6.47
2018-06-17T19:18:19.969Z,1.60
2018-06-17T19:20:52.103Z,2.10
2018-06-17T19:23:24.350Z,1.40
2018-06-17T19:25:56.229Z,2.33
2018-06-17T19:28:28.515Z,2.02
2018-06-17T19:31:00.685Z,2.50
2018-06-17T19:33:32.932Z,4.93
2018-06-17T19:36:05.079Z,3.20
2018-06-17T19:38:37.353Z,5.03
2018-06-17T19:41:09.924Z,2.60
2018-06-17T19:43:42.508Z,2.90
2018-06-17T19:46:14.695Z,4.00
2018-06-17T19:48:46.918Z,3.43
2018-06-17T19:51:23.471Z,3.70
2018-06-17T19:54:00.713Z,4.03
2018-06-17T19:56:37.574Z,1.90
2018-06-17T19:59:14.349Z,2.45
2018-06-17T20:01:47.009Z,3.30
2018-06-17T20:04:19.159Z,1.43
2018-06-17T20:06:51.531Z,1.40
2018-06-17T20:09:23.656Z,2.77
2018-06-17T20:11:55.955Z,4.53
2018-06-17T20:14:28.083Z,3.50
2018-06-17T20:17:00.240Z,2.00
2018-06-17T20:19:32.901Z,3.67
2018-06-17T20:22:05.048Z,5.53
2018-06-17T20:24:37.003Z,2.87
2018-06-17T20:27:08.951Z,2.37
2018-06-17T20:29:41.042Z,3.23
2018-06-17T20:32:17.769Z,3.13
2018-06-17T20:34:53.509Z,4.10
2018-06-17T20:37:30.272Z,4.17
2018-06-17T20:40:06.652Z,3.33
2018-06-17T20:42:43.015Z,3.30
2018-06-17T20:45:15.076Z,3.83
2018-06-17T20:47:45.597Z,3.23
2018-06-17T20:50:15.409Z,3.33
2018-06-17T20:52:44.821Z,3.63
2018-06-17T20:55:14.241Z,3.70
2018-06-17T20:57:43.693Z,6.07
2018-06-17T21:00:13.068Z,5.00
2018-06-17T21:02:42.532Z,4.00
2018-06-17T21:05:12.025Z,2.47
2018-06-17T21:07:41.145Z,2.30
2018-06-17T21:10:10.536Z,1.10
2018-06-17T21:12:39.857Z,4.57
2018-06-17T21:15:14.308Z,2.80
2018-06-17T21:17:43.684Z,1.47
2018-06-17T21:20:18.268Z,3.73
2018-06-17T21:22:52.776Z,2.30
2018-06-17T21:25:27.401Z,2.90
2018-06-17T21:27:58.176Z,2.30
2018-06-17T21:30:27.529Z,1.50
2018-06-17T21:32:56.849Z,2.87
2018-06-17T21:35:27.114Z,3.80
2018-06-17T21:37:56.423Z,3.97
2018-06-17T21:40:25.762Z,4.50
2018-06-17T21:42:55.140Z,4.07
2018-06-17T21:45:24.448Z,3.53
2018-06-17T21:47:53.788Z,3.40
2018-06-17T21:50:23.123Z,2.33
2018-06-17T21:52:52.510Z,5.20
2018-06-17T21:55:21.877Z,3.33
2018-06-17T21:57:51.205Z,2.30
2018-06-17T22:00:20.535Z,3.50
2018-06-17T22:02:49.852Z,3.30
2018-06-17T22:05:19.151Z,4.27
2018-06-17T22:07:53.662Z,3.60
2018-06-17T22:10:28.200Z,2.40
2018-06-17T22:12:59.402Z,3.50
2018-06-17T22:15:34.064Z,2.93
2018-06-17T22:18:03.844Z,1.67
2018-06-17T22:20:33.179Z,1.35
2018-06-17T22:23:02.524Z,3.13
2018-06-17T22:25:31.847Z,2.30
2018-06-17T22:28:01.199Z,4.63
2018-06-17T22:30:30.590Z,2.77
2018-06-17T22:32:59.927Z,5.13
2018-06-17T22:35:29.236Z,2.70
2018-06-17T22:37:58.546Z,2.00
2018-06-17T22:40:27.896Z,3.13
2018-06-17T22:42:57.212Z,3.27
2018-06-17T22:45:26.756Z,2.40
2018-06-17T22:47:58.408Z,3.50
2018-06-17T22:50:28.093Z,3.87
2018-06-17T22:53:08.488Z,4.23
2018-06-17T22:55:37.843Z,2.53
2018-06-17T22:58:12.258Z,2.97
2018-06-17T23:00:46.659Z,5.77
2018-06-17T23:03:21.087Z,1.90
2018-06-17T23:05:55.641Z,3.20
2018-06-17T23:08:30.181Z,3.47
2018-06-17T23:10:59.447Z,3.07
2018-06-17T23:13:28.769Z,1.70
2018-06-17T23:15:58.100Z,2.73
2018-06-17T23:18:27.433Z,4.30
2018-06-17T23:20:56.744Z,2.43
2018-06-17T23:23:26.143Z,3.40
2018-06-17T23:25:55.452Z,5.07
2018-06-17T23:28:24.838Z,1.93
2018-06-17T23:30:54.176Z,4.90
2018-06-17T23:33:23.509Z,2.43
2018-06-17T23:35:52.865Z,2.97
2018-06-17T23:38:22.187Z,5.00
2018-06-17T23:40:51.529Z,2.83
2018-06-17T23:43:20.895Z,1.73
2018-06-17T23:45:55.492Z,1.80
2018-06-17T23:48:30.155Z,4.97
2018-06-17T23:51:04.889Z,1.77
2018-06-17T23:53:39.564Z,5.30
2018-06-17T23:56:10.060Z,4.30
2018-06-17T23:58:40.056Z,3.63
